createdAt,value
2018-10-16T00:02:01.205Z,94.19
2018-10-16T00:04:28.941Z,93.83
2018-10-16T00:06:56.749Z,94.16
2018-10-16T00:09:24.480Z,94.05
2018-10-16T00:12:08.481Z,94.14
2018-10-16T00:14:36.205Z,93.89
2018-10-16T00:17:04.497Z,94.18
2018-10-16T00:19:32.902Z,94.12
2018-10-16T00:22:00.985Z,94.58
2018-10-16T00:24:28.709Z,94.57
2018-10-16T00:26:56.448Z,94.74
2018-10-16T00:29:24.252Z,94.26
2018-10-16T00:31:51.972Z,94.47
2018-10-16T00:34:19.748Z,94.70
2018-10-16T00:36:47.535Z,94.24
2018-10-16T00:39:16.399Z,94.09
2018-10-16T00:41:48.686Z,94.20
2018-10-16T00:44:16.443Z,94.60
2018-10-16T00:46:44.267Z,94.34
2018-10-16T00:49:12.033Z,94.38
2018-10-16T00:51:40.340Z,94.28
2018-10-16T00:54:08.686Z,94.57
2018-10-16T00:56:36.815Z,94.63
2018-10-16T00:59:04.652Z,94.60
2018-10-16T01:01:33.394Z,94.50
2018-10-16T01:04:02.884Z,94.52
2018-10-16T01:06:31.395Z,94.32
2018-10-16T01:08:59.132Z,94.66
2018-10-16T01:11:26.948Z,94.10
2018-10-16T01:13:56.094Z,94.61
2018-10-16T01:16:23.862Z,94.15
2018-10-16T01:18:51.817Z,94.40
2018-10-16T01:21:19.931Z,93.96
2018-10-16T01:23:47.702Z,94.53
2018-10-16T01:26:15.447Z,94.60
2018-10-16T01:28:43.252Z,94.43
2018-10-16T01:31:10.991Z,94.08
2018-10-16T01:33:39.529Z,93.67
2018-10-16T01:36:08.157Z,94.18
2018-10-16T01:38:35.985Z,94.13
2018-10-16T01:41:03.791Z,94.13
2018-10-16T01:43:31.538Z,93.70
2018-10-16T01:45:59.287Z,93.81
2018-10-16T01:48:27.004Z,93.92
2018-10-16T01:50:54.763Z,94.12
2018-10-16T01:53:22.596Z,94.08
2018-10-16T01:55:50.404Z,94.09
2018-10-16T01:58:18.176Z,94.41
2018-10-16T02:00:45.996Z,94.50
2018-10-16T02:03:13.738Z,94.32
2018-10-16T02:05:41.477Z,94.46
2018-10-16T02:08:09.326Z,94.03
2018-10-16T02:10:37.385Z,93.90
2018-10-16T02:13:05.428Z,93.84
2018-10-16T02:15:33.235Z,94.12
2018-10-16T02:18:01.004Z,93.86
2018-10-16T02:20:28.741Z,94.11
2018-10-16T02:22:56.498Z,94.37
2018-10-16T02:25:24.258Z,93.85
2018-10-16T02:27:52.007Z,94.23
2018-10-16T02:30:19.783Z,94.11
2018-10-16T02:32:47.541Z,94.20
2018-10-16T02:35:15.336Z,94.58
2018-10-16T02:37:43.491Z,94.42
2018-10-16T02:40:11.237Z,94.80
2018-10-16T02:42:39.761Z,94.36
2018-10-16T02:45:09.016Z,94.24
2018-10-16T02:47:36.753Z,94.26
2018-10-16T02:50:05.017Z,94.60
2018-10-16T02:52:32.811Z,94.30
2018-10-16T02:55:00.560Z,94.38
2018-10-16T02:57:28.339Z,93.92
2018-10-16T02:59:56.142Z,94.19
2018-10-16T03:02:24.034Z,94.12
2018-10-16T03:04:51.851Z,94.07
2018-10-16T03:07:19.631Z,94.14
2018-10-16T03:09:47.511Z,94.05
2018-10-16T03:12:15.270Z,94.03
2018-10-16T03:14:43.182Z,94.09
2018-10-16T03:17:10.921Z,93.72
2018-10-16T03:19:38.759Z,93.69
2018-10-16T03:22:06.836Z,93.29
2018-10-16T03:24:34.604Z,93.54
2018-10-16T03:27:02.405Z,93.80
2018-10-16T03:29:30.167Z,94.12
2018-10-16T03:31:57.911Z,94.05
2018-10-16T03:34:25.703Z,94.08
2018-10-16T03:36:53.502Z,93.93
2018-10-16T03:39:21.246Z,93.89
2018-10-16T03:41:48.977Z,93.82
2018-10-16T03:44:16.739Z,93.94
2018-10-16T03:46:44.460Z,93.92
2018-10-16T03:49:12.216Z,93.82
2018-10-16T03:51:40.679Z,93.96
2018-10-16T03:54:09.023Z,93.62
2018-10-16T03:56:36.779Z,93.76
2018-10-16T03:59:04.796Z,93.89
2018-10-16T04:01:32.568Z,93.79
2018-10-16T04:04:00.355Z,93.72
2018-10-16T04:06:28.141Z,93.53
2018-10-16T04:08:55.925Z,93.47
2018-10-16T04:11:23.631Z,93.56
2018-10-16T04:13:51.397Z,93.34
2018-10-16T04:16:19.412Z,93.24
2018-10-16T04:18:47.341Z,93.59
2018-10-16T04:21:15.164Z,93.58
2018-10-16T04:23:43.395Z,93.63
2018-10-16T04:26:11.800Z,93.44
2018-10-16T04:28:39.629Z,93.37
2018-10-16T04:31:08.352Z,93.51
2018-10-16T04:33:36.195Z,93.36
2018-10-16T04:36:03.982Z,93.43
2018-10-16T04:38:31.776Z,93.28
2018-10-16T04:40:59.680Z,93.44
2018-10-16T04:43:27.418Z,93.49
2018-10-16T04:45:55.212Z,93.50
2018-10-16T04:48:23.349Z,93.54
2018-10-16T04:50:51.055Z,93.41
2018-10-16T04:53:18.825Z,93.67
2018-10-16T04:55:46.584Z,93.71
2018-10-16T04:58:14.365Z,93.85
2018-10-16T05:00:42.207Z,93.77
2018-10-16T05:03:09.947Z,93.87
2018-10-16T05:05:37.776Z,93.99
2018-10-16T05:08:05.997Z,93.75
2018-10-16T05:10:33.731Z,93.87
2018-10-16T05:13:01.620Z,93.57
2018-10-16T05:15:32.572Z,93.26
2018-10-16T05:18:00.842Z,93.70
2018-10-16T05:20:28.704Z,93.94
2018-10-16T05:22:57.423Z,93.93
2018-10-16T05:25:26.370Z,93.93
2018-10-16T05:27:54.410Z,93.73
2018-10-16T05:30:22.129Z,93.81
2018-10-16T05:32:49.910Z,93.30
2018-10-16T05:35:17.648Z,93.61
2018-10-16T05:37:45.399Z,93.54
2018-10-16T05:40:13.194Z,93.79
2018-10-16T05:42:40.987Z,93.91
2018-10-16T05:45:10.603Z,93.66
2018-10-16T05:47:39.084Z,93.94
2018-10-16T05:50:07.514Z,93.87
2018-10-16T05:52:35.361Z,93.70
2018-10-16T05:55:03.452Z,94.00
2018-10-16T05:57:31.197Z,94.29
2018-10-16T06:00:37.159Z,94.60
2018-10-16T06:03:05.415Z,94.75
2018-10-16T06:05:33.275Z,94.59
2018-10-16T06:08:01.084Z,94.55
2018-10-16T06:10:28.840Z,94.33
2018-10-16T06:12:56.640Z,94.30
2018-10-16T06:15:24.384Z,94.65
2018-10-16T06:17:52.127Z,94.87
2018-10-16T06:20:19.922Z,95.00
2018-10-16T06:22:47.744Z,94.75
2018-10-16T06:25:15.540Z,95.05
2018-10-16T06:27:43.651Z,95.32
2018-10-16T06:30:11.991Z,95.38
2018-10-16T06:32:40.072Z,95.88
2018-10-16T06:35:08.612Z,95.84
2018-10-16T06:37:36.357Z,96.16
2018-10-16T06:40:04.292Z,96.17
2018-10-16T06:42:32.056Z,96.45
2018-10-16T06:44:59.836Z,96.30
2018-10-16T06:47:27.618Z,96.35
2018-10-16T06:49:55.360Z,96.42
2018-10-16T06:52:23.102Z,96.70
2018-10-16T06:54:50.941Z,96.95
2018-10-16T06:57:18.669Z,96.98
2018-10-16T06:59:46.403Z,96.98
2018-10-16T07:02:14.145Z,96.98
2018-10-16T07:04:42.087Z,97.08
2018-10-16T07:07:10.699Z,97.35
2018-10-16T07:09:38.406Z,97.26
2018-10-16T07:12:06.841Z,97.51
2018-10-16T07:14:34.551Z,97.61
2018-10-16T07:17:02.340Z,97.49
2018-10-16T07:19:30.093Z,97.77
2018-10-16T07:21:58.322Z,97.76
2018-10-16T07:24:26.048Z,97.77
2018-10-16T07:26:53.831Z,97.96
2018-10-16T07:29:21.578Z,98.17
2018-10-16T07:31:49.326Z,98.17
2018-10-16T07:34:17.123Z,98.27
2018-10-16T07:36:44.885Z,98.30
2018-10-16T07:39:13.190Z,98.38
2018-10-16T07:41:41.380Z,98.40
2018-10-16T07:44:09.647Z,98.33
2018-10-16T07:46:37.389Z,98.34
2018-10-16T07:49:05.828Z,98.45
2018-10-16T07:51:33.621Z,98.18
2018-10-16T07:54:01.364Z,98.44
2018-10-16T07:56:29.109Z,98.36
2018-10-16T07:58:56.854Z,98.60
2018-10-16T08:01:24.624Z,98.67
2018-10-16T08:03:52.346Z,98.67
2018-10-16T08:06:20.109Z,99.06
2018-10-16T08:08:47.860Z,99.10
2018-10-16T08:11:15.659Z,99.14
2018-10-16T08:13:43.424Z,98.86
2018-10-16T08:16:11.145Z,99.08
2018-10-16T08:18:39.176Z,99.28
2018-10-16T08:21:07.001Z,99.13
2018-10-16T08:23:34.797Z,99.17
2018-10-16T08:26:02.962Z,99.14
2018-10-16T08:28:30.857Z,99.01
2018-10-16T08:30:58.651Z,99.34
2018-10-16T08:33:26.383Z,98.81
2018-10-16T08:35:54.148Z,99.03
2018-10-16T08:38:35.926Z,99.06
2018-10-16T08:41:05.505Z,99.08
2018-10-16T08:43:46.252Z,97.94
2018-10-16T08:46:25.493Z,98.14
2018-10-16T08:50:06.040Z,97.64
2018-10-16T08:52:33.749Z,96.50
2018-10-16T08:55:01.616Z,95.98
2018-10-16T08:57:29.320Z,93.73
2018-10-16T08:59:57.072Z,93.23
2018-10-16T09:02:24.862Z,91.43
2018-10-16T09:04:52.618Z,92.32
2018-10-16T09:07:20.370Z,91.48
2018-10-16T09:09:48.154Z,91.36
2018-10-16T09:12:15.878Z,90.19
2018-10-16T09:14:43.605Z,89.53
2018-10-16T09:17:11.360Z,90.29
2018-10-16T09:19:39.080Z,88.44
2018-10-16T09:22:06.882Z,88.15
2018-10-16T09:24:34.723Z,88.32
2018-10-16T09:27:02.484Z,86.86
2018-10-16T09:29:30.228Z,86.91
2018-10-16T09:31:58.056Z,85.98
2018-10-16T09:34:25.862Z,86.13
2018-10-16T09:36:53.608Z,85.18
2018-10-16T09:39:21.346Z,84.88
2018-10-16T09:41:49.151Z,85.37
2018-10-16T09:44:16.898Z,83.95
2018-10-16T09:46:44.641Z,82.84
2018-10-16T09:49:12.454Z,83.15
2018-10-16T09:51:40.219Z,83.20
2018-10-16T09:54:07.958Z,83.35
2018-10-16T09:56:35.689Z,81.90
2018-10-16T09:59:03.470Z,82.08
2018-10-16T10:01:36.761Z,81.17
2018-10-16T10:04:04.972Z,80.58
2018-10-16T10:06:32.775Z,81.13
2018-10-16T10:09:00.528Z,81.16
2018-10-16T10:11:28.287Z,81.17
2018-10-16T10:13:56.032Z,81.32
2018-10-16T10:16:23.829Z,81.18
2018-10-16T10:18:51.624Z,81.56
2018-10-16T10:21:19.356Z,77.52
2018-10-16T10:23:47.111Z,80.06
2018-10-16T10:26:14.910Z,80.30
2018-10-16T10:28:42.694Z,78.99
2018-10-16T10:31:10.417Z,79.15
2018-10-16T10:33:38.193Z,78.76
2018-10-16T10:36:05.951Z,78.64
2018-10-16T10:38:33.696Z,78.42
2018-10-16T10:41:01.425Z,78.71
2018-10-16T10:43:29.354Z,77.83
2018-10-16T10:45:57.159Z,78.00
2018-10-16T10:48:24.917Z,77.54
2018-10-16T10:50:52.884Z,77.10
2018-10-16T10:53:20.519Z,77.47
2018-10-16T10:55:48.247Z,76.93
2018-10-16T10:58:15.964Z,76.61
2018-10-16T11:00:43.759Z,76.89
2018-10-16T11:03:11.539Z,76.57
2018-10-16T11:05:39.320Z,77.22
2018-10-16T11:08:07.124Z,77.75
2018-10-16T11:10:34.860Z,77.61
2018-10-16T11:13:02.619Z,78.29
2018-10-16T11:15:30.335Z,78.11
2018-10-16T11:17:58.095Z,78.07
2018-10-16T11:20:25.888Z,77.83
2018-10-16T11:22:53.627Z,77.51
2018-10-16T11:25:22.312Z,77.10
2018-10-16T11:27:50.065Z,77.15
2018-10-16T11:30:17.951Z,76.80
2018-10-16T11:32:45.688Z,77.07
2018-10-16T11:35:14.229Z,77.77
2018-10-16T11:37:42.083Z,77.90
2018-10-16T11:40:10.437Z,78.52
2018-10-16T11:42:38.337Z,78.61
2018-10-16T11:45:06.831Z,78.57
2018-10-16T11:47:34.640Z,78.41
2018-10-16T11:50:02.520Z,78.62
2018-10-16T11:52:30.323Z,78.93
2018-10-16T11:54:58.062Z,78.57
2018-10-16T11:57:25.782Z,78.61
2018-10-16T11:59:53.621Z,78.73
2018-10-16T12:02:21.381Z,79.10
2018-10-16T12:04:49.164Z,79.31
2018-10-16T12:07:17.003Z,79.47
2018-10-16T12:09:44.710Z,79.03
2018-10-16T12:12:12.552Z,78.16
2018-10-16T12:14:40.295Z,78.71
2018-10-16T12:17:12.988Z,79.00
2018-10-16T12:19:44.384Z,79.75
2018-10-16T12:22:12.170Z,80.62
2018-10-16T12:24:39.953Z,80.49
2018-10-16T12:27:07.748Z,80.42
2018-10-16T12:29:35.491Z,80.85
2018-10-16T12:32:03.305Z,80.72
2018-10-16T12:34:31.073Z,80.70
2018-10-16T12:36:58.908Z,81.07
2018-10-16T12:39:26.636Z,81.63
2018-10-16T12:41:54.370Z,82.15
2018-10-16T12:44:22.166Z,81.99
2018-10-16T12:46:49.992Z,82.04
2018-10-16T12:49:17.745Z,82.28
2018-10-16T12:51:45.508Z,82.17
2018-10-16T12:54:13.366Z,82.45
2018-10-16T12:56:41.115Z,82.48
2018-10-16T12:59:08.889Z,82.77
2018-10-16T13:01:36.649Z,83.07
2018-10-16T13:04:04.782Z,83.09
2018-10-16T13:06:32.523Z,83.09
2018-10-16T13:09:00.337Z,83.41
2018-10-16T13:11:28.094Z,83.84
2018-10-16T13:13:55.937Z,83.67
2018-10-16T13:16:23.717Z,83.70
2018-10-16T13:18:51.458Z,83.32
2018-10-16T13:21:19.257Z,83.49
2018-10-16T13:23:47.007Z,83.18
2018-10-16T13:26:14.833Z,83.55
2018-10-16T13:28:42.729Z,83.64
2018-10-16T13:31:10.468Z,84.20
2018-10-16T13:33:38.211Z,83.74
2018-10-16T13:36:05.964Z,84.25
2018-10-16T13:38:33.740Z,84.58
2018-10-16T13:41:01.455Z,84.59
2018-10-16T13:43:29.223Z,84.75
2018-10-16T13:45:57.004Z,84.66
2018-10-16T13:48:24.844Z,84.39
2018-10-16T13:50:52.645Z,84.51
2018-10-16T13:53:20.356Z,85.06
2018-10-16T13:58:21.776Z,83.53
2018-10-16T14:00:49.496Z,83.54
2018-10-16T14:03:17.293Z,83.46
2018-10-16T14:05:45.066Z,84.27
2018-10-16T14:08:12.864Z,84.37
2018-10-16T14:10:40.612Z,84.55
2018-10-16T14:13:08.375Z,84.84
2018-10-16T14:15:36.136Z,84.28
2018-10-16T14:18:04.036Z,84.66
2018-10-16T14:20:31.806Z,84.54
2018-10-16T14:22:59.564Z,85.11
2018-10-16T14:25:27.336Z,85.25
2018-10-16T14:27:55.153Z,85.21
2018-10-16T14:30:22.900Z,85.32
2018-10-16T14:32:50.755Z,85.69
2018-10-16T14:35:18.473Z,85.66
2018-10-16T14:37:46.242Z,86.01
2018-10-16T14:40:15.200Z,85.93
2018-10-16T14:42:43.333Z,86.07
2018-10-16T14:45:11.987Z,86.08
2018-10-16T14:47:39.705Z,86.38
2018-10-16T14:50:08.418Z,86.31
2018-10-16T14:52:36.126Z,86.18
2018-10-16T14:55:04.589Z,86.65
2018-10-16T14:57:32.437Z,87.15
2018-10-16T15:00:00.320Z,87.76
2018-10-16T15:02:28.083Z,87.29
2018-10-16T15:04:55.840Z,87.30
2018-10-16T15:07:23.602Z,87.36
2018-10-16T15:09:51.439Z,87.40
2018-10-16T15:12:23.673Z,86.81
2018-10-16T15:14:51.558Z,86.90
2018-10-16T15:17:19.340Z,86.92
2018-10-16T15:19:47.114Z,87.27
2018-10-16T15:22:14.931Z,87.85
2018-10-16T15:24:42.697Z,86.99
2018-10-16T15:27:10.458Z,87.75
2018-10-16T15:29:38.213Z,87.17
2018-10-16T15:32:06.056Z,88.11
2018-10-16T15:34:33.816Z,88.63
2018-10-16T15:37:01.590Z,88.75
2018-10-16T15:39:29.351Z,89.13
2018-10-16T15:41:57.223Z,88.92
2018-10-16T15:44:25.328Z,89.62
2018-10-16T15:46:53.245Z,89.22
2018-10-16T15:49:21.064Z,89.26
2018-10-16T15:51:48.819Z,88.83
2018-10-16T15:54:16.544Z,88.55
2018-10-16T15:56:44.350Z,88.68
2018-10-16T15:59:12.104Z,89.34
2018-10-16T16:01:39.983Z,88.93
2018-10-16T16:04:08.093Z,88.79
2018-10-16T16:06:35.894Z,88.46
2018-10-16T16:09:04.774Z,88.71
2018-10-16T16:11:32.581Z,88.74
2018-10-16T16:14:00.371Z,88.68
2018-10-16T16:16:28.160Z,88.98
2018-10-16T16:18:55.997Z,88.79
2018-10-16T16:21:23.718Z,88.60
2018-10-16T16:23:51.486Z,89.31
2018-10-16T16:26:19.369Z,89.56
2018-10-16T16:28:47.214Z,90.72
2018-10-16T16:31:14.989Z,90.90
2018-10-16T16:33:43.251Z,89.82
2018-10-16T16:36:11.071Z,89.72
2018-10-16T16:38:38.788Z,89.74
2018-10-16T16:41:06.626Z,90.26
2018-10-16T16:43:34.437Z,90.47
2018-10-16T16:46:02.380Z,89.98
2018-10-16T16:48:30.120Z,90.32
2018-10-16T16:50:57.940Z,91.03
2018-10-16T16:53:25.705Z,91.84
2018-10-16T16:55:53.490Z,91.51
2018-10-16T16:58:21.275Z,90.99
2018-10-16T17:00:49.860Z,90.95
2018-10-16T17:03:17.631Z,90.32
2018-10-16T17:05:45.435Z,90.04
2018-10-16T17:08:13.349Z,90.32
2018-10-16T17:10:41.197Z,89.61
2018-10-16T17:13:08.975Z,89.75
2018-10-16T17:15:36.750Z,90.72
2018-10-16T17:18:04.673Z,90.60
2018-10-16T17:20:32.428Z,90.83
2018-10-16T17:23:00.235Z,90.93
2018-10-16T17:25:28.293Z,90.74
2018-10-16T17:27:55.832Z,90.56
2018-10-16T17:30:23.542Z,90.38
2018-10-16T17:32:51.349Z,90.33
2018-10-16T17:35:19.119Z,90.76
2018-10-16T17:37:46.914Z,90.48
2018-10-16T17:40:15.986Z,91.11
2018-10-16T17:42:43.983Z,90.95
2018-10-16T17:45:13.158Z,90.80
2018-10-16T17:47:41.080Z,90.74
2018-10-16T17:50:11.158Z,90.43
2018-10-16T17:52:39.305Z,90.71
2018-10-16T17:55:07.830Z,91.08
2018-10-16T17:57:36.274Z,90.75
2018-10-16T18:00:04.357Z,90.99
2018-10-16T18:02:32.206Z,91.03
2018-10-16T18:05:00.015Z,91.03
2018-10-16T18:07:27.780Z,91.67
2018-10-16T18:09:55.599Z,91.83
2018-10-16T18:12:23.399Z,91.56
2018-10-16T18:14:51.604Z,91.50
2018-10-16T18:17:19.374Z,91.64
2018-10-16T18:19:47.173Z,92.18
2018-10-16T18:22:15.759Z,92.20
2018-10-16T18:24:43.576Z,92.39
2018-10-16T18:27:11.568Z,92.82
2018-10-16T18:29:39.405Z,92.00
2018-10-16T18:32:08.109Z,92.14
2018-10-16T18:34:35.966Z,92.08
2018-10-16T18:37:04.025Z,92.88
2018-10-16T18:39:31.909Z,93.34
2018-10-16T18:41:59.740Z,92.47
2018-10-16T18:44:27.661Z,92.69
2018-10-16T18:46:55.532Z,92.75
2018-10-16T18:49:23.329Z,92.25
2018-10-16T18:51:51.418Z,93.00
2018-10-16T18:54:19.248Z,92.85
2018-10-16T18:56:47.023Z,92.80
2018-10-16T18:59:15.680Z,92.49
2018-10-16T19:01:43.547Z,92.01
2018-10-16T19:04:11.352Z,92.52
2018-10-16T19:06:39.277Z,92.35
2018-10-16T19:09:10.028Z,92.43
2018-10-16T19:11:37.849Z,92.74
2018-10-16T19:14:05.961Z,92.78
2018-10-16T19:16:33.676Z,92.34
2018-10-16T19:19:01.491Z,92.12
2018-10-16T19:21:29.253Z,92.15
2018-10-16T19:23:57.005Z,92.12
2018-10-16T19:26:24.813Z,92.29
2018-10-16T19:28:52.610Z,91.44
2018-10-16T19:31:20.424Z,90.75
2018-10-16T19:33:48.301Z,91.14
2018-10-16T19:36:16.083Z,93.37
2018-10-16T19:38:43.904Z,93.20
2018-10-16T19:41:11.772Z,93.93
2018-10-16T19:43:39.550Z,93.92
2018-10-16T19:46:07.296Z,93.99
2018-10-16T19:48:35.066Z,93.53
2018-10-16T19:51:02.857Z,93.14
2018-10-16T19:53:30.734Z,92.86
2018-10-16T19:55:58.538Z,92.70
2018-10-16T19:58:26.302Z,92.88
2018-10-16T20:00:54.098Z,92.96
2018-10-16T20:03:21.868Z,94.03
2018-10-16T20:05:49.616Z,93.77
2018-10-16T20:08:17.568Z,94.14
2018-10-16T20:10:45.371Z,94.29
2018-10-16T20:13:13.114Z,93.03
2018-10-16T20:15:40.975Z,92.99
2018-10-16T20:18:08.737Z,94.06
2018-10-16T20:20:36.448Z,94.77
2018-10-16T20:23:04.297Z,94.60
2018-10-16T20:25:32.076Z,94.65
2018-10-16T20:27:59.865Z,93.96
2018-10-16T20:30:27.660Z,93.55
2018-10-16T20:32:55.388Z,94.07
2018-10-16T20:35:23.113Z,93.45
2018-10-16T20:37:50.908Z,93.04
2018-10-16T20:40:18.688Z,94.06
2018-10-16T20:42:46.469Z,94.40
2018-10-16T20:45:14.272Z,94.27
2018-10-16T20:47:42.102Z,93.96
2018-10-16T20:50:09.857Z,93.59
2018-10-16T20:52:38.235Z,94.41
2018-10-16T20:55:06.453Z,93.75
2018-10-16T20:57:34.215Z,93.52
2018-10-16T21:00:02.676Z,93.53
2018-10-16T21:02:30.592Z,93.90
2018-10-16T21:04:58.612Z,94.04
2018-10-16T21:07:26.494Z,93.94
2018-10-16T21:09:54.420Z,94.23
2018-10-16T21:12:22.405Z,93.57
2018-10-16T21:14:50.287Z,93.33
2018-10-16T21:17:18.182Z,93.19
2018-10-16T21:19:46.058Z,93.89
2018-10-16T21:22:13.841Z,93.80
2018-10-16T21:24:41.589Z,93.40
2018-10-16T21:27:11.258Z,92.76
2018-10-16T21:29:39.063Z,93.13
2018-10-16T21:32:07.609Z,94.42
2018-10-16T21:34:35.358Z,94.61
2018-10-16T21:37:03.165Z,94.65
2018-10-16T21:39:30.934Z,94.21
2018-10-16T21:41:58.696Z,93.55
2018-10-16T21:44:26.757Z,93.56
2018-10-16T21:46:54.577Z,94.19
2018-10-16T21:49:23.067Z,94.37
2018-10-16T21:51:51.204Z,94.66
2018-10-16T21:54:18.980Z,94.24
2018-10-16T21:56:46.781Z,93.55
2018-10-16T21:59:14.713Z,93.70
2018-10-16T22:01:48.078Z,93.99
2018-10-16T22:04:15.949Z,94.24
2018-10-16T22:06:43.720Z,93.89
2018-10-16T22:09:13.237Z,93.46
2018-10-16T22:11:40.985Z,93.30
2018-10-16T22:14:09.594Z,93.42
2018-10-16T22:16:37.371Z,93.61
2018-10-16T22:19:05.540Z,93.75
2018-10-16T22:21:33.295Z,93.73
2018-10-16T22:24:01.396Z,92.87
2018-10-16T22:26:29.109Z,92.64
2018-10-16T22:28:57.020Z,92.60
2018-10-16T22:31:24.752Z,92.52
2018-10-16T22:33:52.471Z,92.87
2018-10-16T22:36:20.215Z,92.87
2018-10-16T22:38:47.937Z,92.94
2018-10-16T22:41:15.837Z,92.87
2018-10-16T22:43:43.567Z,92.69
2018-10-16T22:46:11.403Z,92.38
2018-10-16T22:48:39.487Z,92.21
2018-10-16T22:51:07.300Z,92.13
2018-10-16T22:53:35.114Z,92.22
2018-10-16T22:56:02.888Z,92.12
2018-10-16T22:58:30.705Z,92.74
2018-10-16T23:00:58.471Z,93.15
2018-10-16T23:03:26.306Z,93.94
2018-10-16T23:05:54.089Z,94.22
2018-10-16T23:08:21.860Z,94.59
2018-10-16T23:10:49.641Z,94.01
2018-10-16T23:13:17.448Z,93.21
2018-10-16T23:15:45.193Z,93.20
2018-10-16T23:18:12.952Z,93.15
2018-10-16T23:20:40.763Z,93.03
2018-10-16T23:23:08.577Z,93.07
2018-10-16T23:25:36.361Z,92.88
2018-10-16T23:28:04.212Z,93.40
2018-10-16T23:30:31.976Z,93.75
2018-10-16T23:32:59.746Z,93.43
2018-10-16T23:35:27.485Z,93.20
2018-10-16T23:37:55.271Z,93.75
2018-10-16T23:40:23.072Z,93.38
2018-10-16T23:42:50.854Z,93.58
2018-10-16T23:45:18.648Z,93.28
2018-10-16T23:47:46.509Z,93.59
2018-10-16T23:50:14.299Z,93.55
2018-10-16T23:52:42.081Z,93.45
2018-10-16T23:55:10.352Z,93.76
2018-10-16T23:57:38.234Z,94.48
